createdAt,value
2022-11-21T00:00:45.176Z,100640.91
2022-11-21T00:01:47.691Z,100645.75
2022-11-21T00:02:52.060Z,100638.25
2022-11-21T00:04:01.967Z,100646.81
2022-11-21T00:05:05.105Z,100635.03
2022-11-21T00:06:07.948Z,100639.28
2022-11-21T00:07:17.314Z,100638.84
2022-11-21T00:08:23.107Z,100643.84
2022-11-21T00:09:30.466Z,100661.44
2022-11-21T00:10:36.480Z,100656.63
2022-11-21T00:11:39.499Z,100665.75
2022-11-21T00:12:44.066Z,100662.00
2022-11-21T00:13:46.733Z,100669.09
2022-11-21T00:14:51.222Z,100664.91
2022-11-21T00:15:57.127Z,100669.28
2022-11-21T00:17:07.069Z,100659.38
2022-11-21T00:18:15.328Z,100658.00
2022-11-21T00:19:20.729Z,100655.31
2022-11-21T00:20:28.120Z,100643.44
2022-11-21T00:21:32.548Z,100651.69
2022-11-21T00:22:38.911Z,100655.47
2022-11-21T00:23:47.680Z,100660.28
2022-11-21T00:25:03.453Z,100652.59
2022-11-21T00:26:08.224Z,100648.97
2022-11-21T00:27:23.966Z,100651.31
2022-11-21T00:28:30.809Z,100651.53
2022-11-21T00:29:55.961Z,100648.19
2022-11-21T00:31:03.339Z,100638.50
2022-11-21T00:32:07.602Z,100634.34
2022-11-21T00:33:10.855Z,100629.88
2022-11-21T00:34:16.259Z,100622.91
2022-11-21T00:35:20.411Z,100625.94
2022-11-21T00:36:23.145Z,100625.41
2022-11-21T00:37:28.316Z,100629.75
2022-11-21T00:38:30.803Z,100634.63
2022-11-21T00:39:34.006Z,100637.28
2022-11-21T00:40:39.347Z,100644.56
2022-11-21T00:41:44.909Z,100642.72
2022-11-21T00:42:50.301Z,100646.81
2022-11-21T00:43:53.399Z,100643.38
2022-11-21T00:44:57.674Z,100643.06
2022-11-21T00:46:03.229Z,100644.53
2022-11-21T00:47:07.176Z,100647.97
2022-11-21T00:48:11.479Z,100642.31
2022-11-21T00:49:16.118Z,100650.41
2022-11-21T00:50:19.874Z,100642.91
2022-11-21T00:51:24.809Z,100651.03
2022-11-21T00:52:34.142Z,100642.31
2022-11-21T00:53:38.463Z,100652.69
2022-11-21T00:54:44.857Z,100652.19
2022-11-21T00:55:51.016Z,100652.13
2022-11-21T00:56:54.120Z,100651.28
2022-11-21T00:58:02.670Z,100646.72
2022-11-21T00:59:14.516Z,100643.63
2022-11-21T01:00:19.046Z,100641.75
2022-11-21T01:01:25.983Z,100639.84
2022-11-21T01:02:29.133Z,100633.09
2022-11-21T01:03:41.825Z,100614.09
2022-11-21T01:04:45.495Z,100613.22
2022-11-21T01:05:54.352Z,100621.16
2022-11-21T01:07:05.123Z,100615.19
2022-11-21T01:08:11.336Z,100621.16
2022-11-21T01:09:14.936Z,100621.31
2022-11-21T01:10:19.898Z,100626.81
2022-11-21T01:11:22.908Z,100631.75
2022-11-21T01:12:28.430Z,100624.50
2022-11-21T01:13:37.280Z,100621.59
2022-11-21T01:14:43.429Z,100619.78
2022-11-21T01:16:06.685Z,100621.91
2022-11-21T01:17:18.903Z,100618.50
2022-11-21T01:18:25.912Z,100618.25
2022-11-21T01:19:32.471Z,100624.16
2022-11-21T01:20:41.896Z,100622.78
2022-11-21T01:21:45.852Z,100624.16
2022-11-21T01:22:49.355Z,100613.91
2022-11-21T01:23:58.438Z,100613.44
2022-11-21T01:25:06.816Z,100619.97
2022-11-21T01:26:14.853Z,100604.72
2022-11-21T01:27:18.734Z,100606.50
2022-11-21T01:28:24.290Z,100609.31
2022-11-21T01:29:28.996Z,100604.94
2022-11-21T01:30:32.239Z,100606.56
2022-11-21T01:31:37.129Z,100605.56
2022-11-21T01:32:40.411Z,100601.94
2022-11-21T01:33:48.717Z,100595.13
2022-11-21T01:34:59.678Z,100584.00
2022-11-21T01:36:25.815Z,100578.00
2022-11-21T01:37:31.242Z,100582.03
2022-11-21T01:38:42.920Z,100595.59
2022-11-21T01:39:48.422Z,100583.81
2022-11-21T01:40:56.357Z,100591.25
2022-11-21T01:42:06.960Z,100589.94
2022-11-21T01:43:17.323Z,100592.63
2022-11-21T01:44:26.569Z,100579.28
2022-11-21T01:46:08.001Z,100565.56
2022-11-21T01:47:14.238Z,100566.91
2022-11-21T01:48:19.917Z,100558.19
2022-11-21T01:49:47.925Z,100560.38
2022-11-21T01:51:03.396Z,100553.81
2022-11-21T01:52:19.209Z,100549.66
2022-11-21T01:53:33.290Z,100546.88
2022-11-21T01:54:58.981Z,100547.66
2022-11-21T01:56:07.520Z,100550.94
2022-11-21T01:57:17.582Z,100550.72
2022-11-21T01:58:23.579Z,100550.44
2022-11-21T01:59:57.307Z,100551.53
2022-11-21T02:01:10.193Z,100556.97
2022-11-21T02:02:21.450Z,100551.81
2022-11-21T02:03:30.522Z,100553.91
2022-11-21T02:04:35.574Z,100547.84
2022-11-21T02:05:42.249Z,100539.13
2022-11-21T02:06:55.246Z,100543.53
2022-11-21T02:08:12.845Z,100539.66
2022-11-21T02:09:21.636Z,100541.13
2022-11-21T02:10:27.709Z,100547.22
2022-11-21T02:11:43.905Z,100551.59
2022-11-21T02:12:54.897Z,100551.53
2022-11-21T02:14:04.677Z,100558.22
2022-11-21T02:15:11.672Z,100557.44
2022-11-21T02:16:30.927Z,100555.81
2022-11-21T02:17:42.818Z,100562.03
2022-11-21T02:18:52.269Z,100556.75
2022-11-21T02:20:04.257Z,100556.63
2022-11-21T02:21:45.659Z,100564.25
2022-11-21T02:23:45.668Z,100555.47
2022-11-21T02:25:04.341Z,100548.94
2022-11-21T02:26:18.531Z,100540.28
2022-11-21T02:27:33.294Z,100543.00
2022-11-21T02:28:39.318Z,100531.25
2022-11-21T02:29:51.216Z,100526.97
2022-11-21T02:30:56.226Z,100530.19
2022-11-21T02:32:07.501Z,100526.63
2022-11-21T02:33:14.725Z,100534.13
2022-11-21T02:34:18.326Z,100531.81
2022-11-21T02:35:22.228Z,100533.53
2022-11-21T02:36:49.169Z,100532.81
2022-11-21T02:38:02.075Z,100537.72
2022-11-21T02:39:14.220Z,100534.84
2022-11-21T02:40:29.968Z,100524.94
2022-11-21T02:42:00.943Z,100526.53
2022-11-21T02:43:23.523Z,100532.28
2022-11-21T02:44:44.410Z,100535.91
2022-11-21T02:45:56.683Z,100540.47
2022-11-21T02:47:10.317Z,100543.81
2022-11-21T02:48:17.036Z,100547.47
2022-11-21T02:50:02.117Z,100543.13
2022-11-21T02:51:07.037Z,100548.09
2022-11-21T02:52:10.838Z,100535.63
2022-11-21T02:53:16.869Z,100533.19
2022-11-21T02:54:21.082Z,100533.09
2022-11-21T02:55:27.802Z,100525.59
2022-11-21T02:56:32.923Z,100526.06
2022-11-21T02:57:42.900Z,100526.63
2022-11-21T02:58:53.994Z,100521.81
2022-11-21T03:00:09.847Z,100515.53
2022-11-21T03:01:15.613Z,100521.19
2022-11-21T03:02:18.506Z,100519.66
2022-11-21T03:03:23.413Z,100528.53
2022-11-21T03:04:27.733Z,100525.38
2022-11-21T03:05:31.849Z,100526.47
2022-11-21T03:06:43.997Z,100522.38
2022-11-21T03:07:47.983Z,100513.38
2022-11-21T03:08:51.759Z,100520.25
2022-11-21T03:10:01.576Z,100512.59
2022-11-21T03:11:05.844Z,100520.75
2022-11-21T03:12:09.335Z,100520.59
2022-11-21T03:13:12.667Z,100526.53
2022-11-21T03:14:20.448Z,100525.47
2022-11-21T03:15:27.142Z,100530.19
2022-11-21T03:16:33.693Z,100527.47
2022-11-21T03:17:37.520Z,100526.63
2022-11-21T03:18:42.428Z,100529.31
2022-11-21T03:19:49.031Z,100526.53
2022-11-21T03:20:53.676Z,100517.84
2022-11-21T03:21:57.502Z,100520.31
2022-11-21T03:23:02.323Z,100520.13
2022-11-21T03:24:06.026Z,100515.91
2022-11-21T03:25:14.277Z,100520.53
2022-11-21T03:26:17.861Z,100512.44
2022-11-21T03:27:26.943Z,100515.91
2022-11-21T03:28:28.933Z,100516.16
2022-11-21T03:29:31.570Z,100514.25
2022-11-21T03:30:35.474Z,100512.63
2022-11-21T03:31:42.899Z,100514.28
2022-11-21T03:32:47.020Z,100518.69
2022-11-21T03:33:51.102Z,100531.03
2022-11-21T03:34:54.632Z,100525.75
2022-11-21T03:35:56.909Z,100534.75
2022-11-21T03:36:59.466Z,100531.13
2022-11-21T03:38:01.913Z,100522.13
2022-11-21T03:39:06.738Z,100539.56
2022-11-21T03:40:11.591Z,100531.09
2022-11-21T03:41:30.039Z,100535.88
2022-11-21T03:42:32.138Z,100540.81
2022-11-21T03:43:35.666Z,100539.81
2022-11-21T03:44:37.792Z,100533.66
2022-11-21T03:45:41.287Z,100537.47
2022-11-21T03:46:47.177Z,100539.50
2022-11-21T03:47:50.512Z,100537.00
2022-11-21T03:48:54.378Z,100543.13
2022-11-21T03:49:58.352Z,100546.72
2022-11-21T03:51:01.945Z,100537.59
2022-11-21T03:52:06.375Z,100537.91
2022-11-21T03:53:08.671Z,100546.41
2022-11-21T03:54:13.278Z,100537.47
2022-11-21T03:55:18.152Z,100541.09
2022-11-21T03:56:23.353Z,100539.75
2022-11-21T03:57:28.427Z,100537.91
2022-11-21T03:58:35.902Z,100546.78
2022-11-21T03:59:52.002Z,100543.47
2022-11-21T04:00:58.729Z,100533.06
2022-11-21T04:02:08.167Z,100535.19
2022-11-21T04:03:10.535Z,100535.31
2022-11-21T04:04:15.108Z,100539.75
2022-11-21T04:05:20.731Z,100531.22
2022-11-21T04:06:26.026Z,100527.44
2022-11-21T04:07:30.444Z,100522.53
2022-11-21T04:08:32.828Z,100523.94
2022-11-21T04:09:36.128Z,100529.59
2022-11-21T04:10:38.681Z,100525.91
2022-11-21T04:11:40.962Z,100522.91
2022-11-21T04:12:43.719Z,100521.53
2022-11-21T04:13:51.316Z,100513.13
2022-11-21T04:14:53.396Z,100520.97
2022-11-21T04:15:58.205Z,100520.38
2022-11-21T04:17:04.654Z,100520.31
2022-11-21T04:18:06.717Z,100525.22
2022-11-21T04:19:08.868Z,100518.56
2022-11-21T04:20:13.840Z,100523.50
2022-11-21T04:21:17.294Z,100519.16
2022-11-21T04:22:20.151Z,100520.91
2022-11-21T04:23:24.042Z,100515.44
2022-11-21T04:24:27.947Z,100523.50
2022-11-21T04:25:31.606Z,100519.16
2022-11-21T04:26:33.915Z,100528.84
2022-11-21T04:27:40.256Z,100522.03
2022-11-21T04:28:48.946Z,100517.06
2022-11-21T04:29:51.332Z,100506.34
2022-11-21T04:30:56.184Z,100521.63
2022-11-21T04:32:00.598Z,100508.66
2022-11-21T04:33:03.436Z,100508.88
2022-11-21T04:34:10.155Z,100511.13
2022-11-21T04:35:16.848Z,100516.78
2022-11-21T04:36:22.583Z,100515.00
2022-11-21T04:37:25.440Z,100514.38
2022-11-21T04:38:31.430Z,100512.91
2022-11-21T04:39:42.063Z,100505.16
2022-11-21T04:40:59.182Z,100502.88
2022-11-21T04:42:02.912Z,100508.41
2022-11-21T04:43:08.580Z,100502.94
2022-11-21T04:44:16.409Z,100499.78
2022-11-21T04:45:19.741Z,100499.06
2022-11-21T04:46:32.884Z,100505.03
2022-11-21T04:47:45.120Z,100506.69
2022-11-21T04:48:49.216Z,100500.13
2022-11-21T04:49:55.584Z,100496.34
2022-11-21T04:50:59.049Z,100491.31
2022-11-21T04:52:04.598Z,100490.78
2022-11-21T04:53:19.154Z,100485.97
2022-11-21T04:54:22.868Z,100489.63
2022-11-21T04:55:29.380Z,100485.38
2022-11-21T04:56:32.781Z,100484.66
2022-11-21T04:57:38.040Z,100477.16
2022-11-21T04:58:47.153Z,100483.19
2022-11-21T04:59:50.084Z,100492.78
2022-11-21T05:00:55.284Z,100494.34
2022-11-21T05:02:01.722Z,100494.34
2022-11-21T05:03:07.024Z,100495.88
2022-11-21T05:04:11.569Z,100496.06
2022-11-21T05:05:15.567Z,100491.69
2022-11-21T05:06:18.729Z,100488.91
2022-11-21T05:07:26.639Z,100490.78
2022-11-21T05:08:29.902Z,100492.22
2022-11-21T05:09:32.340Z,100488.66
2022-11-21T05:10:55.636Z,100492.06
2022-11-21T05:12:21.713Z,100491.41
2022-11-21T05:13:24.118Z,100493.22
2022-11-21T05:14:28.319Z,100487.09
2022-11-21T05:15:30.766Z,100489.84
2022-11-21T05:16:34.170Z,100486.81
2022-11-21T05:17:36.596Z,100484.22
2022-11-21T05:18:38.723Z,100485.88
2022-11-21T05:19:40.933Z,100492.00
2022-11-21T05:20:46.922Z,100490.75
2022-11-21T05:21:48.889Z,100489.28
2022-11-21T05:22:53.940Z,100497.03
2022-11-21T05:23:58.048Z,100496.34
2022-11-21T05:25:00.463Z,100488.31
2022-11-21T05:26:02.797Z,100493.31
2022-11-21T05:27:06.592Z,100499.56
2022-11-21T05:28:13.589Z,100498.25
2022-11-21T05:29:16.589Z,100487.91
2022-11-21T05:30:18.671Z,100490.91
2022-11-21T05:31:28.582Z,100491.59
2022-11-21T05:32:30.985Z,100493.00
2022-11-21T05:33:33.467Z,100488.97
2022-11-21T05:34:38.216Z,100480.38
2022-11-21T05:35:43.496Z,100491.00
2022-11-21T05:36:45.894Z,100489.50
2022-11-21T05:37:48.365Z,100487.84
2022-11-21T05:38:56.649Z,100492.75
2022-11-21T05:39:59.135Z,100487.16
2022-11-21T05:41:01.489Z,100489.53
2022-11-21T05:42:04.185Z,100486.75
2022-11-21T05:43:27.810Z,100484.44
2022-11-21T05:44:33.373Z,100483.88
2022-11-21T05:45:37.000Z,100479.38
2022-11-21T05:46:41.007Z,100486.88
2022-11-21T05:47:44.655Z,100483.41
2022-11-21T05:48:48.828Z,100485.34
2022-11-21T05:50:01.222Z,100482.66
2022-11-21T05:51:05.612Z,100483.66
2022-11-21T05:52:10.997Z,100483.28
2022-11-21T05:53:14.330Z,100481.69
2022-11-21T05:54:19.197Z,100482.03
2022-11-21T05:55:24.222Z,100475.16
2022-11-21T05:56:35.451Z,100469.44
2022-11-21T05:57:39.241Z,100470.50
2022-11-21T05:58:43.506Z,100465.09
2022-11-21T05:59:48.503Z,100467.25
2022-11-21T06:01:06.756Z,100466.94
2022-11-21T06:02:37.070Z,100468.09
2022-11-21T06:03:50.951Z,100472.41
2022-11-21T06:05:00.125Z,100477.00
2022-11-21T06:06:24.962Z,100481.56
2022-11-21T06:07:34.887Z,100474.88
2022-11-21T06:08:49.445Z,100486.69
2022-11-21T06:10:18.478Z,100481.78
2022-11-21T06:11:23.268Z,100485.53
2022-11-21T06:12:32.086Z,100474.53
2022-11-21T06:13:35.318Z,100473.47
2022-11-21T06:14:37.761Z,100480.44
2022-11-21T06:15:42.387Z,100480.84
2022-11-21T06:16:50.712Z,100479.72
2022-11-21T06:17:53.124Z,100475.44
2022-11-21T06:18:59.082Z,100484.78
2022-11-21T06:20:02.468Z,100475.22
2022-11-21T06:21:21.849Z,100474.19
2022-11-21T06:22:25.565Z,100476.28
2022-11-21T06:23:28.698Z,100476.09
2022-11-21T06:24:31.867Z,100478.53
2022-11-21T06:25:36.614Z,100478.94
2022-11-21T06:26:41.372Z,100475.22
2022-11-21T06:27:47.694Z,100467.84
2022-11-21T06:28:50.982Z,100469.94
2022-11-21T06:29:56.808Z,100483.06
2022-11-21T06:31:23.845Z,100470.63
2022-11-21T06:32:25.870Z,100471.66
2022-11-21T06:33:28.016Z,100479.03
2022-11-21T06:34:30.294Z,100478.97
2022-11-21T06:35:33.374Z,100480.31
2022-11-21T06:36:36.812Z,100486.41
2022-11-21T06:37:39.769Z,100475.69
2022-11-21T06:38:42.860Z,100483.88
2022-11-21T06:39:45.508Z,100485.78
2022-11-21T06:40:49.638Z,100477.06
2022-11-21T06:41:54.325Z,100480.19
2022-11-21T06:42:58.033Z,100473.13
2022-11-21T06:44:01.822Z,100481.34
2022-11-21T06:45:05.322Z,100481.78
2022-11-21T06:46:09.077Z,100481.09
2022-11-21T06:47:12.179Z,100476.28
2022-11-21T06:48:15.899Z,100479.16
2022-11-21T06:49:18.564Z,100486.16
2022-11-21T06:50:20.669Z,100475.00
2022-11-21T06:51:24.352Z,100476.28
2022-11-21T06:52:26.595Z,100480.56
2022-11-21T06:53:29.567Z,100478.78
2022-11-21T06:54:31.909Z,100482.88
2022-11-21T06:55:34.113Z,100476.53
2022-11-21T06:56:36.110Z,100491.84
2022-11-21T06:57:38.221Z,100497.06
2022-11-21T06:58:40.554Z,100488.97
2022-11-21T06:59:43.085Z,100488.97
2022-11-21T07:00:45.175Z,100495.16
2022-11-21T07:01:48.423Z,100475.56
2022-11-21T07:02:52.005Z,100475.22
2022-11-21T07:03:54.682Z,100472.81
2022-11-21T07:04:59.466Z,100473.94
2022-11-21T07:06:04.190Z,100462.53
2022-11-21T07:07:07.478Z,100473.28
2022-11-21T07:08:13.286Z,100475.69
2022-11-21T07:09:33.730Z,100476.44
2022-11-21T07:10:36.320Z,100482.94
2022-11-21T07:11:39.949Z,100492.16
2022-11-21T07:13:00.884Z,100491.19
2022-11-21T07:14:09.118Z,100485.47
2022-11-21T07:15:11.938Z,100482.47
2022-11-21T07:16:14.446Z,100475.09
2022-11-21T07:17:16.460Z,100473.16
2022-11-21T07:18:19.861Z,100477.06
2022-11-21T07:19:23.386Z,100485.13
2022-11-21T07:20:25.373Z,100485.34
2022-11-21T07:21:27.381Z,100484.03
2022-11-21T07:22:35.736Z,100475.91
2022-11-21T07:23:39.844Z,100471.44
2022-11-21T07:24:42.487Z,100477.06
2022-11-21T07:25:45.897Z,100478.22
2022-11-21T07:26:47.933Z,100474.28
2022-11-21T07:27:50.303Z,100473.38
2022-11-21T07:28:52.563Z,100485.03
2022-11-21T07:29:57.482Z,100485.13
2022-11-21T07:31:10.067Z,100486.91
2022-11-21T07:32:20.005Z,100490.78
2022-11-21T07:33:53.142Z,100496.44
2022-11-21T07:34:57.597Z,100501.91
2022-11-21T07:36:05.223Z,100496.53
2022-11-21T07:37:08.280Z,100490.66
2022-11-21T07:38:10.456Z,100487.53
2022-11-21T07:39:12.481Z,100479.16
2022-11-21T07:40:14.642Z,100486.84
2022-11-21T07:41:16.657Z,100482.56
2022-11-21T07:42:18.635Z,100490.53
2022-11-21T07:43:20.729Z,100490.47
2022-11-21T07:44:24.240Z,100476.63
2022-11-21T07:45:26.210Z,100483.13
2022-11-21T07:46:28.622Z,100483.69
2022-11-21T07:47:32.784Z,100482.00
2022-11-21T07:48:41.385Z,100487.66
2022-11-21T07:49:43.584Z,100484.53
2022-11-21T07:50:48.290Z,100485.44
2022-11-21T07:51:52.269Z,100481.09
2022-11-21T07:53:06.270Z,100480.69
2022-11-21T07:54:10.356Z,100479.97
2022-11-21T07:55:12.343Z,100475.97
2022-11-21T07:56:14.554Z,100481.56
2022-11-21T07:57:24.750Z,100481.56
2022-11-21T07:58:27.088Z,100486.47
2022-11-21T08:00:22.205Z,100482.63
2022-11-21T08:01:24.496Z,100479.69
2022-11-21T08:02:28.279Z,100477.53
2022-11-21T08:03:30.292Z,100479.72
2022-11-21T08:04:32.365Z,100482.88
2022-11-21T08:05:42.583Z,100481.78
2022-11-21T08:06:44.620Z,100476.47
2022-11-21T08:07:46.734Z,100476.59
2022-11-21T08:08:53.616Z,100482.59
2022-11-21T08:09:56.857Z,100479.69
2022-11-21T08:10:59.324Z,100484.53
2022-11-21T08:12:01.935Z,100478.09
2022-11-21T08:13:04.002Z,100477.28
2022-11-21T08:14:06.064Z,100474.44
2022-11-21T08:15:09.223Z,100481.25
2022-11-21T08:16:11.514Z,100478.31
2022-11-21T08:17:14.346Z,100476.56
2022-11-21T08:18:21.051Z,100479.81
2022-11-21T08:19:22.998Z,100479.34
2022-11-21T08:20:25.000Z,100476.13
2022-11-21T08:21:27.552Z,100477.38
2022-11-21T08:22:31.221Z,100466.84
2022-11-21T08:23:34.283Z,100470.22
2022-11-21T08:24:36.417Z,100472.00
2022-11-21T08:25:41.206Z,100462.69
2022-11-21T08:26:47.448Z,100464.78
2022-11-21T08:27:52.198Z,100473.13
2022-11-21T08:28:59.607Z,100465.41
2022-11-21T08:30:02.051Z,100462.19
2022-11-21T08:31:06.612Z,100465.66
2022-11-21T08:32:08.511Z,100460.94
2022-11-21T08:33:11.449Z,100460.88
2022-11-21T08:34:14.706Z,100461.75
2022-11-21T08:35:19.606Z,100462.94
2022-11-21T08:36:23.588Z,100455.28
2022-11-21T08:37:27.965Z,100465.88
2022-11-21T08:38:30.332Z,100465.63
2022-11-21T08:39:37.421Z,100473.31
2022-11-21T08:40:40.537Z,100462.19
2022-11-21T08:42:01.209Z,100477.59
2022-11-21T08:43:08.377Z,100472.97
2022-11-21T08:44:14.019Z,100476.91
2022-11-21T08:45:17.263Z,100475.31
2022-11-21T08:46:19.293Z,100480.81
2022-11-21T08:47:22.880Z,100480.81
2022-11-21T08:48:28.709Z,100479.97
2022-11-21T08:49:35.062Z,100482.91
2022-11-21T08:50:37.202Z,100476.50
2022-11-21T08:51:41.374Z,100476.47
2022-11-21T08:52:43.365Z,100471.56
2022-11-21T08:53:48.495Z,100471.19
2022-11-21T08:54:52.638Z,100470.81
2022-11-21T08:55:54.985Z,100476.13
2022-11-21T08:56:56.954Z,100471.78
2022-11-21T08:57:59.232Z,100478.25
2022-11-21T08:59:01.328Z,100467.50
2022-11-21T09:00:04.747Z,100467.91
2022-11-21T09:01:07.007Z,100466.19
2022-11-21T09:02:11.860Z,100466.66
2022-11-21T09:03:19.039Z,100470.72
2022-11-21T09:04:23.880Z,100463.97
2022-11-21T09:05:25.838Z,100465.50
2022-11-21T09:06:30.655Z,100466.25
2022-11-21T09:07:32.734Z,100460.47
2022-11-21T09:08:35.337Z,100465.28
2022-11-21T09:09:39.296Z,100457.66
2022-11-21T09:10:42.614Z,100465.38
2022-11-21T09:11:45.921Z,100462.66
2022-11-21T09:12:47.997Z,100465.59
2022-11-21T09:14:12.571Z,100447.09
2022-11-21T09:15:33.210Z,100450.78
2022-11-21T09:16:57.963Z,100445.75
2022-11-21T09:18:03.545Z,100444.50
2022-11-21T09:19:07.038Z,100441.25
2022-11-21T09:20:09.862Z,100451.22
2022-11-21T09:21:16.653Z,100450.84
2022-11-21T09:22:18.974Z,100447.53
2022-11-21T09:23:20.987Z,100449.56
2022-11-21T09:24:23.092Z,100459.56
2022-11-21T09:25:25.206Z,100451.13
2022-11-21T09:26:27.118Z,100441.44
2022-11-21T09:27:30.634Z,100444.69
2022-11-21T09:28:32.590Z,100440.25
2022-11-21T09:29:34.693Z,100442.16
2022-11-21T09:30:37.075Z,100438.22
2022-11-21T09:31:38.976Z,100439.84
2022-11-21T09:32:41.630Z,100437.72
2022-11-21T09:33:43.669Z,100440.63
2022-11-21T09:34:45.599Z,100437.38
2022-11-21T09:35:48.037Z,100441.84
2022-11-21T09:36:50.224Z,100443.88
2022-11-21T09:37:53.802Z,100439.44
2022-11-21T09:38:56.540Z,100440.44
2022-11-21T09:39:58.930Z,100442.69
2022-11-21T09:41:41.389Z,100440.63
2022-11-21T09:43:07.033Z,100437.72
2022-11-21T09:44:16.059Z,100439.69
2022-11-21T09:45:29.413Z,100437.38
2022-11-21T09:51:34.653Z,100433.91
2022-11-21T09:52:44.871Z,100432.78
2022-11-21T09:54:21.929Z,100430.75
2022-11-21T09:59:47.085Z,100424.03
2022-11-21T10:01:13.570Z,100426.28
2022-11-21T10:02:24.750Z,100423.69
2022-11-21T10:03:48.236Z,100421.63
2022-11-21T10:05:00.881Z,100424.16
2022-11-21T10:06:34.695Z,100422.97
2022-11-21T10:07:47.318Z,100426.44
2022-11-21T10:09:03.024Z,100417.13
2022-11-21T10:10:46.757Z,100413.50
2022-11-21T10:12:29.050Z,100410.59
2022-11-21T10:14:18.555Z,100405.38
2022-11-21T10:15:40.442Z,100403.94
2022-11-21T10:16:50.221Z,100410.34
2022-11-21T10:18:37.342Z,100413.59
2022-11-21T10:20:07.739Z,100422.81
2022-11-21T10:21:32.857Z,100421.09
2022-11-21T10:23:16.032Z,100415.38
2022-11-21T10:24:57.851Z,100423.09
2022-11-21T10:26:24.271Z,100414.66
2022-11-21T10:27:38.824Z,100416.78
2022-11-21T10:29:12.029Z,100411.06
2022-11-21T10:30:22.111Z,100406.91
2022-11-21T10:31:30.898Z,100397.88
2022-11-21T10:32:50.963Z,100405.34
2022-11-21T10:33:59.177Z,100404.13
2022-11-21T10:35:21.280Z,100395.69
2022-11-21T10:36:38.891Z,100386.31
2022-11-21T10:37:48.749Z,100388.81
2022-11-21T10:38:56.871Z,100393.81
2022-11-21T10:40:21.127Z,100387.22
2022-11-21T10:41:56.453Z,100389.41
2022-11-21T10:43:39.317Z,100389.63
2022-11-21T10:45:10.187Z,100382.66
2022-11-21T10:46:13.584Z,100376.69
2022-11-21T10:47:28.383Z,100382.81
2022-11-21T10:48:31.965Z,100378.78
2022-11-21T10:49:48.772Z,100388.53
2022-11-21T11:02:27.459Z,100368.72
2022-11-21T11:03:39.838Z,100370.16
2022-11-21T11:04:51.975Z,100369.13
2022-11-21T12:00:59.023Z,100338.03
2022-11-21T12:02:26.653Z,100333.53
2022-11-21T12:04:01.170Z,100324.69
2022-11-21T12:05:26.288Z,100330.81
2022-11-21T12:07:18.040Z,100331.88
2022-11-21T12:08:41.715Z,100326.00
2022-11-21T12:36:21.572Z,100344.28
2022-11-21T12:37:55.726Z,100334.47
2022-11-21T12:39:28.446Z,100331.47
2022-11-21T12:40:59.242Z,100335.81
2022-11-21T12:42:29.041Z,100349.81
2022-11-21T12:44:10.293Z,100345.44
2022-11-21T12:45:37.912Z,100342.44
2022-11-21T12:47:58.868Z,100346.94
2022-11-21T12:49:55.419Z,100355.00
2022-11-21T12:51:41.734Z,100346.19
2022-11-21T12:53:09.953Z,100346.94
2022-11-21T12:54:49.433Z,100344.50
2022-11-21T12:56:00.634Z,100347.09
2022-11-21T12:57:39.523Z,100347.91
2022-11-21T12:59:06.258Z,100345.16
2022-11-21T13:00:27.880Z,100351.31
2022-11-21T13:01:55.796Z,100335.91
2022-11-21T13:06:47.043Z,100331.69
2022-11-21T13:07:53.116Z,100340.75
2022-11-21T13:09:09.285Z,100337.09
2022-11-21T13:10:22.697Z,100329.59
2022-11-21T13:12:00.270Z,100332.44
2022-11-21T13:13:21.404Z,100330.47
2022-11-21T13:14:37.409Z,100321.03
2022-11-21T13:16:01.081Z,100315.19
2022-11-21T13:17:33.873Z,100316.25
2022-11-21T13:18:57.727Z,100311.25
2022-11-21T13:20:07.550Z,100315.91
2022-11-21T13:48:31.468Z,100317.31
2022-11-21T13:49:52.722Z,100315.75
2022-11-21T13:51:36.935Z,100324.91
2022-11-21T13:53:08.336Z,100324.13
2022-11-21T13:55:03.259Z,100324.97
2022-11-21T13:57:59.904Z,100323.09
2022-11-21T13:59:42.327Z,100321.41
2022-11-21T14:07:47.934Z,100319.53
2022-11-21T14:09:15.564Z,100321.16
2022-11-21T14:10:36.453Z,100316.16
2022-11-21T14:11:50.328Z,100310.63
2022-11-21T14:12:55.770Z,100312.53
2022-11-21T14:13:59.705Z,100314.56
2022-11-21T14:15:02.711Z,100321.03
2022-11-21T14:16:15.731Z,100311.94
2022-11-21T14:17:49.965Z,100323.97
2022-11-21T14:19:03.514Z,100315.47
2022-11-21T14:20:30.980Z,100318.28
2022-11-21T14:21:40.969Z,100315.25
2022-11-21T14:24:26.626Z,100311.41
2022-11-21T14:25:50.431Z,100302.88
2022-11-21T14:26:59.821Z,100309.13
2022-11-21T14:28:20.707Z,100310.78
2022-11-21T14:29:41.693Z,100308.44
2022-11-21T14:30:48.831Z,100303.31
2022-11-21T14:32:10.624Z,100308.44
2022-11-21T14:33:36.495Z,100304.13
2022-11-21T14:41:37.880Z,100311.69
2022-11-21T14:42:49.174Z,100310.38
2022-11-21T14:44:09.069Z,100313.22
2022-11-21T14:45:23.523Z,100312.81
2022-11-21T14:46:30.899Z,100303.09
2022-11-21T14:47:47.075Z,100305.16
2022-11-21T14:48:50.690Z,100309.31
2022-11-21T14:50:01.053Z,100311.28
2022-11-21T14:51:08.097Z,100313.50
2022-11-21T14:52:38.348Z,100309.84
2022-11-21T14:53:47.637Z,100308.63
2022-11-21T14:56:35.315Z,100303.84
2022-11-21T14:57:55.421Z,100311.94
2022-11-21T14:59:07.095Z,100310.94
2022-11-21T15:00:43.320Z,100316.34
2022-11-21T15:02:04.974Z,100313.53
2022-11-21T15:03:24.298Z,100323.13
2022-11-21T15:04:32.520Z,100299.31
2022-11-21T15:07:31.584Z,100313.38
2022-11-21T15:12:00.322Z,100304.47
2022-11-21T15:13:13.578Z,100310.16
2022-11-21T15:14:28.530Z,100310.66
2022-11-21T15:15:36.526Z,100300.50
2022-11-21T15:16:39.947Z,100301.94
2022-11-21T15:18:10.144Z,100291.00
2022-11-21T15:19:10.929Z,100292.44
2022-11-21T15:20:16.465Z,100295.16
2022-11-21T15:21:22.741Z,100295.69
2022-11-21T15:22:38.167Z,100295.66
2022-11-21T15:25:37.265Z,100291.28
2022-11-21T15:26:45.320Z,100291.06
2022-11-21T15:28:14.922Z,100289.16
2022-11-21T15:29:32.000Z,100296.50
2022-11-21T15:30:56.090Z,100296.50
2022-11-21T15:32:14.053Z,100292.97
2022-11-21T15:33:23.889Z,100295.31
2022-11-21T15:34:36.109Z,100295.97
2022-11-21T15:35:44.301Z,100281.59
2022-11-21T15:37:03.777Z,100290.53
2022-11-21T15:38:19.069Z,100282.31
2022-11-21T15:40:00.287Z,100281.44
2022-11-21T15:41:11.377Z,100279.25
2022-11-21T15:43:19.716Z,100270.81
2022-11-21T15:45:23.139Z,100277.06
2022-11-21T16:33:53.221Z,100285.69
2022-11-21T16:34:58.633Z,100284.72
2022-11-21T16:36:02.756Z,100283.44
2022-11-21T16:37:20.070Z,100285.06
2022-11-21T16:38:37.039Z,100281.09
2022-11-21T16:39:59.536Z,100284.09
2022-11-21T16:41:22.378Z,100277.28
2022-11-21T16:42:37.016Z,100285.22
2022-11-21T16:58:53.967Z,100286.13
2022-11-21T16:59:59.304Z,100292.50
2022-11-21T17:01:17.007Z,100278.81